sensor_id;sensor_type;location;lat;lon;timestamp;temperature;humidity
63313;DHT22;49442;45.640;13.812;2023-01-19T00:01:10;6.20;99.90
63313;DHT22;49442;45.640;13.812;2023-01-19T00:03:35;6.20;99.90
63313;DHT22;49442;45.640;13.812;2023-01-19T00:06:07;6.20;99.90
63313;DHT22;49442;45.640;13.812;2023-01-19T00:08:33;6.20;99.90
63313;DHT22;49442;45.640;13.812;2023-01-19T00:10:59;6.20;99.90
63313;DHT22;49442;45.640;13.812;2023-01-19T00:13:25;6.20;99.90
63313;DHT22;49442;45.640;13.812;2023-01-19T00:15:51;6.10;99.90
63313;DHT22;49442;45.640;13.812;2023-01-19T00:18:17;6.10;99.90
63313;DHT22;49442;45.640;13.812;2023-01-19T00:20:43;6.00;99.90
63313;DHT22;49442;45.640;13.812;2023-01-19T00:23:09;6.00;99.90
63313;DHT22;49442;45.640;13.812;2023-01-19T00:25:35;6.00;99.90
63313;DHT22;49442;45.640;13.812;2023-01-19T00:28:10;6.00;99.90
63313;DHT22;49442;45.640;13.812;2023-01-19T00:30:36;6.00;99.90
63313;DHT22;49442;45.640;13.812;2023-01-19T00:33:01;6.00;99.90
63313;DHT22;49442;45.640;13.812;2023-01-19T00:35:27;6.00;99.90
63313;DHT22;49442;45.640;13.812;2023-01-19T00:37:53;6.00;99.90
63313;DHT22;49442;45.640;13.812;2023-01-19T00:40:19;6.00;99.90
63313;DHT22;49442;45.640;13.812;2023-01-19T00:42:45;6.00;99.90
63313;DHT22;49442;45.640;13.812;2023-01-19T00:45:20;6.00;99.90
63313;DHT22;49442;45.640;13.812;2023-01-19T00:47:47;6.00;99.90
63313;DHT22;49442;45.640;13.812;2023-01-19T00:50:13;6.00;99.90
63313;DHT22;49442;45.640;13.812;2023-01-19T00:52:41;6.00;99.90
63313;DHT22;49442;45.640;13.812;2023-01-19T00:55:07;6.00;99.90
63313;DHT22;49442;45.640;13.812;2023-01-19T00:57:33;6.00;99.90
63313;DHT22;49442;45.640;13.812;2023-01-19T00:59:59;6.00;99.90
63313;DHT22;49442;45.640;13.812;2023-01-19T01:02:24;6.00;99.90
63313;DHT22;49442;45.640;13.812;2023-01-19T01:04:50;6.00;99.90
63313;DHT22;49442;45.640;13.812;2023-01-19T01:07:19;6.00;99.90
63313;DHT22;49442;45.640;13.812;2023-01-19T01:09:45;5.90;99.90
63313;DHT22;49442;45.640;13.812;2023-01-19T01:12:11;5.90;99.90
63313;DHT22;49442;45.640;13.812;2023-01-19T01:14:36;5.90;99.90
63313;DHT22;49442;45.640;13.812;2023-01-19T01:17:02;5.90;99.90
63313;DHT22;49442;45.640;13.812;2023-01-19T01:19:28;6.00;99.90
63313;DHT22;49442;45.640;13.812;2023-01-19T01:21:53;5.90;99.90
63313;DHT22;49442;45.640;13.812;2023-01-19T01:24:20;5.90;99.90
63313;DHT22;49442;45.640;13.812;2023-01-19T01:26:45;6.00;99.90
63313;DHT22;49442;45.640;13.812;2023-01-19T01:29:11;5.90;99.90
63313;DHT22;49442;45.640;13.812;2023-01-19T01:31:36;5.90;99.90
63313;DHT22;49442;45.640;13.812;2023-01-19T01:34:02;5.90;99.90
63313;DHT22;49442;45.640;13.812;2023-01-19T01:36:28;5.90;99.90
63313;DHT22;49442;45.640;13.812;2023-01-19T01:38:56;5.90;99.90
63313;DHT22;49442;45.640;13.812;2023-01-19T01:41:22;5.90;99.90
63313;DHT22;49442;45.640;13.812;2023-01-19T01:46:13;5.80;99.90
63313;DHT22;49442;45.640;13.812;2023-01-19T01:48:40;5.80;99.90
63313;DHT22;49442;45.640;13.812;2023-01-19T01:51:07;5.80;99.90
63313;DHT22;49442;45.640;13.812;2023-01-19T01:56:26;5.70;99.90
63313;DHT22;49442;45.640;13.812;2023-01-19T01:58:53;5.70;99.90
63313;DHT22;49442;45.640;13.812;2023-01-19T02:01:18;5.70;99.90
63313;DHT22;49442;45.640;13.812;2023-01-19T02:04:03;5.70;99.90
63313;DHT22;49442;45.640;13.812;2023-01-19T02:06:28;5.70;99.90
63313;DHT22;49442;45.640;13.812;2023-01-19T02:09:12;5.80;99.90
63313;DHT22;49442;45.640;13.812;2023-01-19T02:11:56;5.80;99.90
63313;DHT22;49442;45.640;13.812;2023-01-19T02:14:40;5.80;99.90
63313;DHT22;49442;45.640;13.812;2023-01-19T02:17:06;5.70;99.90
63313;DHT22;49442;45.640;13.812;2023-01-19T02:19:41;5.70;99.90
63313;DHT22;49442;45.640;13.812;2023-01-19T02:22:15;5.70;99.90
63313;DHT22;49442;45.640;13.812;2023-01-19T02:24:42;5.70;99.90
63313;DHT22;49442;45.640;13.812;2023-01-19T02:27:08;5.70;99.90
63313;DHT22;49442;45.640;13.812;2023-01-19T02:29:34;5.80;99.90
63313;DHT22;49442;45.640;13.812;2023-01-19T02:32:00;5.80;99.90
63313;DHT22;49442;45.640;13.812;2023-01-19T02:34:27;5.80;99.90
63313;DHT22;49442;45.640;13.812;2023-01-19T02:36:55;5.70;99.90
63313;DHT22;49442;45.640;13.812;2023-01-19T02:39:29;5.70;99.90
63313;DHT22;49442;45.640;13.812;2023-01-19T02:41:58;5.80;99.90
63313;DHT22;49442;45.640;13.812;2023-01-19T02:44:25;5.80;99.90
63313;DHT22;49442;45.640;13.812;2023-01-19T02:46:52;5.80;99.90
63313;DHT22;49442;45.640;13.812;2023-01-19T02:49:18;5.70;99.90
63313;DHT22;49442;45.640;13.812;2023-01-19T02:51:43;5.80;99.90
63313;DHT22;49442;45.640;13.812;2023-01-19T03:09:51;5.70;99.90
63313;DHT22;49442;45.640;13.812;2023-01-19T03:14:56;5.70;99.90
63313;DHT22;49442;45.640;13.812;2023-01-19T03:17:23;5.70;99.90
63313;DHT22;49442;45.640;13.812;2023-01-19T03:19:49;5.70;99.90
63313;DHT22;49442;45.640;13.812;2023-01-19T03:22:20;5.70;99.90
63313;DHT22;49442;45.640;13.812;2023-01-19T03:24:48;5.60;99.90
63313;DHT22;49442;45.640;13.812;2023-01-19T03:27:35;5.60;99.90
63313;DHT22;49442;45.640;13.812;2023-01-19T03:30:06;5.60;99.90
63313;DHT22;49442;45.640;13.812;2023-01-19T03:32:35;5.70;99.90
63313;DHT22;49442;45.640;13.812;2023-01-19T03:35:02;5.70;99.90
63313;DHT22;49442;45.640;13.812;2023-01-19T03:37:29;5.70;99.90
63313;DHT22;49442;45.640;13.812;2023-01-19T03:39:55;5.70;99.90
63313;DHT22;49442;45.640;13.812;2023-01-19T03:42:21;5.70;99.90
63313;DHT22;49442;45.640;13.812;2023-01-19T03:44:48;5.70;99.90
63313;DHT22;49442;45.640;13.812;2023-01-19T03:47:15;5.70;99.90
63313;DHT22;49442;45.640;13.812;2023-01-19T03:49:42;5.70;99.90
63313;DHT22;49442;45.640;13.812;2023-01-19T03:52:08;5.70;99.90
63313;DHT22;49442;45.640;13.812;2023-01-19T03:54:33;5.70;99.90
63313;DHT22;49442;45.640;13.812;2023-01-19T03:56:59;5.70;99.90
63313;DHT22;49442;45.640;13.812;2023-01-19T03:59:24;5.70;99.90
63313;DHT22;49442;45.640;13.812;2023-01-19T04:01:50;5.70;99.90
63313;DHT22;49442;45.640;13.812;2023-01-19T04:04:15;5.70;99.90
63313;DHT22;49442;45.640;13.812;2023-01-19T04:06:41;5.60;99.90
63313;DHT22;49442;45.640;13.812;2023-01-19T04:09:07;5.60;99.90
63313;DHT22;49442;45.640;13.812;2023-01-19T04:11:32;5.50;99.90
63313;DHT22;49442;45.640;13.812;2023-01-19T04:13:58;5.50;99.90
63313;DHT22;49442;45.640;13.812;2023-01-19T04:16:24;5.40;99.90
63313;DHT22;49442;45.640;13.812;2023-01-19T04:18:49;5.30;99.90
63313;DHT22;49442;45.640;13.812;2023-01-19T04:21:16;5.20;99.90
63313;DHT22;49442;45.640;13.812;2023-01-19T04:23:42;5.10;99.90
63313;DHT22;49442;45.640;13.812;2023-01-19T04:26:08;5.10;99.90
63313;DHT22;49442;45.640;13.812;2023-01-19T04:28:34;5.00;99.90
63313;DHT22;49442;45.640;13.812;2023-01-19T04:31:01;5.00;99.90
63313;DHT22;49442;45.640;13.812;2023-01-19T04:33:27;5.00;99.90
63313;DHT22;49442;45.640;13.812;2023-01-19T04:35:53;4.90;99.90
63313;DHT22;49442;45.640;13.812;2023-01-19T04:38:19;4.90;99.90
63313;DHT22;49442;45.640;13.812;2023-01-19T04:40:45;4.90;99.90
63313;DHT22;49442;45.640;13.812;2023-01-19T04:43:10;4.80;99.90
63313;DHT22;49442;45.640;13.812;2023-01-19T04:45:36;4.80;99.90
63313;DHT22;49442;45.640;13.812;2023-01-19T04:48:02;4.70;99.90
63313;DHT22;49442;45.640;13.812;2023-01-19T04:50:30;4.70;99.90
63313;DHT22;49442;45.640;13.812;2023-01-19T04:52:56;4.70;99.90
63313;DHT22;49442;45.640;13.812;2023-01-19T04:55:22;4.70;99.90
63313;DHT22;49442;45.640;13.812;2023-01-19T04:57:47;4.80;99.90
63313;DHT22;49442;45.640;13.812;2023-01-19T05:00:13;4.80;99.90
63313;DHT22;49442;45.640;13.812;2023-01-19T05:02:39;4.80;99.90
63313;DHT22;49442;45.640;13.812;2023-01-19T05:05:07;4.70;99.90
63313;DHT22;49442;45.640;13.812;2023-01-19T05:07:32;4.60;99.90
63313;DHT22;49442;45.640;13.812;2023-01-19T05:09:59;4.60;99.90
63313;DHT22;49442;45.640;13.812;2023-01-19T05:12:24;4.50;99.90
63313;DHT22;49442;45.640;13.812;2023-01-19T05:14:50;4.50;99.90
63313;DHT22;49442;45.640;13.812;2023-01-19T05:17:15;4.50;99.90
63313;DHT22;49442;45.640;13.812;2023-01-19T05:19:41;4.50;99.90
63313;DHT22;49442;45.640;13.812;2023-01-19T05:22:06;4.50;99.90
63313;DHT22;49442;45.640;13.812;2023-01-19T05:24:32;4.50;99.90
63313;DHT22;49442;45.640;13.812;2023-01-19T05:26:57;4.50;99.90
63313;DHT22;49442;45.640;13.812;2023-01-19T05:29:23;4.50;99.90
63313;DHT22;49442;45.640;13.812;2023-01-19T05:31:48;4.50;99.90
63313;DHT22;49442;45.640;13.812;2023-01-19T05:34:14;4.50;99.90
63313;DHT22;49442;45.640;13.812;2023-01-19T05:36:40;4.60;99.90
63313;DHT22;49442;45.640;13.812;2023-01-19T05:39:05;4.60;99.90
63313;DHT22;49442;45.640;13.812;2023-01-19T05:41:31;4.60;99.90
63313;DHT22;49442;45.640;13.812;2023-01-19T05:43:56;4.60;99.90
63313;DHT22;49442;45.640;13.812;2023-01-19T05:46:22;4.60;99.90
63313;DHT22;49442;45.640;13.812;2023-01-19T05:48:48;4.60;99.90
63313;DHT22;49442;45.640;13.812;2023-01-19T05:51:14;4.70;99.90
63313;DHT22;49442;45.640;13.812;2023-01-19T05:53:39;4.70;99.90
63313;DHT22;49442;45.640;13.812;2023-01-19T05:56:06;4.70;99.90
63313;DHT22;49442;45.640;13.812;2023-01-19T05:58:35;4.60;99.90
63313;DHT22;49442;45.640;13.812;2023-01-19T06:01:03;4.60;99.90
63313;DHT22;49442;45.640;13.812;2023-01-19T06:03:30;4.60;99.90
63313;DHT22;49442;45.640;13.812;2023-01-19T06:05:56;4.60;99.90
63313;DHT22;49442;45.640;13.812;2023-01-19T06:08:21;4.60;99.90
63313;DHT22;49442;45.640;13.812;2023-01-19T06:10:47;4.60;99.90
63313;DHT22;49442;45.640;13.812;2023-01-19T06:13:12;4.60;99.90
63313;DHT22;49442;45.640;13.812;2023-01-19T06:15:38;4.60;99.90
63313;DHT22;49442;45.640;13.812;2023-01-19T06:18:03;4.60;99.90
63313;DHT22;49442;45.640;13.812;2023-01-19T06:20:29;4.60;99.90
63313;DHT22;49442;45.640;13.812;2023-01-19T06:22:57;4.60;99.90
63313;DHT22;49442;45.640;13.812;2023-01-19T06:25:23;4.60;99.90
63313;DHT22;49442;45.640;13.812;2023-01-19T06:27:50;4.60;99.90
63313;DHT22;49442;45.640;13.812;2023-01-19T06:30:16;4.60;99.90
63313;DHT22;49442;45.640;13.812;2023-01-19T06:32:41;4.60;99.90
63313;DHT22;49442;45.640;13.812;2023-01-19T06:35:07;4.70;99.90
63313;DHT22;49442;45.640;13.812;2023-01-19T06:37:33;4.60;99.90
63313;DHT22;49442;45.640;13.812;2023-01-19T06:39:58;4.50;99.90
63313;DHT22;49442;45.640;13.812;2023-01-19T06:42:24;4.60;99.90
63313;DHT22;49442;45.640;13.812;2023-01-19T06:44:49;4.50;99.90
63313;DHT22;49442;45.640;13.812;2023-01-19T06:47:15;4.50;99.90
63313;DHT22;49442;45.640;13.812;2023-01-19T06:49:41;4.50;99.90
63313;DHT22;49442;45.640;13.812;2023-01-19T06:52:09;4.50;99.90
63313;DHT22;49442;45.640;13.812;2023-01-19T06:54:35;4.40;99.90
63313;DHT22;49442;45.640;13.812;2023-01-19T06:57:01;4.40;99.90
63313;DHT22;49442;45.640;13.812;2023-01-19T06:59:27;4.30;99.90
63313;DHT22;49442;45.640;13.812;2023-01-19T07:01:52;4.30;99.90
63313;DHT22;49442;45.640;13.812;2023-01-19T07:04:20;4.30;99.90
63313;DHT22;49442;45.640;13.812;2023-01-19T07:06:45;4.20;99.90
63313;DHT22;49442;45.640;13.812;2023-01-19T07:09:11;4.30;99.90
63313;DHT22;49442;45.640;13.812;2023-01-19T07:11:37;4.30;99.90
63313;DHT22;49442;45.640;13.812;2023-01-19T07:14:03;4.30;99.90
63313;DHT22;49442;45.640;13.812;2023-01-19T07:16:29;4.30;99.90
63313;DHT22;49442;45.640;13.812;2023-01-19T07:18:54;4.30;99.90
63313;DHT22;49442;45.640;13.812;2023-01-19T07:21:20;4.30;99.90
63313;DHT22;49442;45.640;13.812;2023-01-19T07:23:50;4.30;99.90
63313;DHT22;49442;45.640;13.812;2023-01-19T07:26:16;4.30;99.90
63313;DHT22;49442;45.640;13.812;2023-01-19T07:28:44;4.40;99.90
63313;DHT22;49442;45.640;13.812;2023-01-19T07:31:09;4.40;99.90
63313;DHT22;49442;45.640;13.812;2023-01-19T07:33:35;4.40;99.90
63313;DHT22;49442;45.640;13.812;2023-01-19T07:36:00;4.40;99.90
63313;DHT22;49442;45.640;13.812;2023-01-19T07:38:26;4.40;99.90
63313;DHT22;49442;45.640;13.812;2023-01-19T07:40:58;4.50;99.90
63313;DHT22;49442;45.640;13.812;2023-01-19T07:43:23;4.50;99.90
63313;DHT22;49442;45.640;13.812;2023-01-19T07:45:49;4.50;99.90
63313;DHT22;49442;45.640;13.812;2023-01-19T07:48:15;4.60;99.90
63313;DHT22;49442;45.640;13.812;2023-01-19T07:50:40;4.60;99.90
63313;DHT22;49442;45.640;13.812;2023-01-19T07:53:06;4.60;99.90
63313;DHT22;49442;45.640;13.812;2023-01-19T07:55:33;4.70;99.90
63313;DHT22;49442;45.640;13.812;2023-01-19T07:57:59;4.70;99.90
63313;DHT22;49442;45.640;13.812;2023-01-19T08:00:25;4.80;99.90
63313;DHT22;49442;45.640;13.812;2023-01-19T08:02:50;4.80;99.90
63313;DHT22;49442;45.640;13.812;2023-01-19T08:05:17;4.90;99.90
63313;DHT22;49442;45.640;13.812;2023-01-19T08:07:43;4.90;99.90
63313;DHT22;49442;45.640;13.812;2023-01-19T08:10:10;5.00;99.90
63313;DHT22;49442;45.640;13.812;2023-01-19T08:12:36;5.10;99.90
63313;DHT22;49442;45.640;13.812;2023-01-19T08:15:02;5.20;99.90
63313;DHT22;49442;45.640;13.812;2023-01-19T08:17:27;5.30;99.90
63313;DHT22;49442;45.640;13.812;2023-01-19T08:19:53;5.50;99.90
63313;DHT22;49442;45.640;13.812;2023-01-19T08:22:18;5.50;99.90
63313;DHT22;49442;45.640;13.812;2023-01-19T08:24:44;5.50;99.90
63313;DHT22;49442;45.640;13.812;2023-01-19T08:27:09;5.60;99.90
63313;DHT22;49442;45.640;13.812;2023-01-19T08:29:35;5.90;99.90
63313;DHT22;49442;45.640;13.812;2023-01-19T08:32:01;6.00;99.90
63313;DHT22;49442;45.640;13.812;2023-01-19T08:34:27;6.00;99.90
63313;DHT22;49442;45.640;13.812;2023-01-19T08:36:54;5.90;99.90
63313;DHT22;49442;45.640;13.812;2023-01-19T08:39:20;6.00;99.90
63313;DHT22;49442;45.640;13.812;2023-01-19T08:41:48;6.10;99.90
63313;DHT22;49442;45.640;13.812;2023-01-19T08:44:14;6.10;99.90
63313;DHT22;49442;45.640;13.812;2023-01-19T08:46:40;6.30;99.90
63313;DHT22;49442;45.640;13.812;2023-01-19T08:49:06;6.30;99.90
63313;DHT22;49442;45.640;13.812;2023-01-19T08:51:31;6.30;99.90
63313;DHT22;49442;45.640;13.812;2023-01-19T08:53:57;6.40;99.90
63313;DHT22;49442;45.640;13.812;2023-01-19T08:56:22;6.50;99.90
63313;DHT22;49442;45.640;13.812;2023-01-19T08:58:48;6.40;99.90
63313;DHT22;49442;45.640;13.812;2023-01-19T09:01:14;6.30;99.90
63313;DHT22;49442;45.640;13.812;2023-01-19T09:03:41;6.10;99.90
63313;DHT22;49442;45.640;13.812;2023-01-19T09:06:07;6.00;99.90
63313;DHT22;49442;45.640;13.812;2023-01-19T09:08:33;5.90;99.90
63313;DHT22;49442;45.640;13.812;2023-01-19T09:10:58;5.80;99.90
63313;DHT22;49442;45.640;13.812;2023-01-19T09:13:24;5.80;99.90
63313;DHT22;49442;45.640;13.812;2023-01-19T09:15:50;5.80;99.90
63313;DHT22;49442;45.640;13.812;2023-01-19T09:18:16;5.80;99.90
63313;DHT22;49442;45.640;13.812;2023-01-19T09:20:42;5.80;99.90
63313;DHT22;49442;45.640;13.812;2023-01-19T09:23:08;5.80;99.90
63313;DHT22;49442;45.640;13.812;2023-01-19T09:25:35;5.80;99.90
63313;DHT22;49442;45.640;13.812;2023-01-19T09:28:01;5.80;99.90
63313;DHT22;49442;45.640;13.812;2023-01-19T09:30:27;5.70;99.90
63313;DHT22;49442;45.640;13.812;2023-01-19T09:32:53;5.80;99.90
63313;DHT22;49442;45.640;13.812;2023-01-19T09:35:18;5.80;99.90
63313;DHT22;49442;45.640;13.812;2023-01-19T09:37:47;5.80;99.90
63313;DHT22;49442;45.640;13.812;2023-01-19T09:40:13;5.80;99.90
63313;DHT22;49442;45.640;13.812;2023-01-19T09:45:05;5.90;99.90
63313;DHT22;49442;45.640;13.812;2023-01-19T09:47:35;5.90;99.90
63313;DHT22;49442;45.640;13.812;2023-01-19T09:50:05;5.90;99.90
63313;DHT22;49442;45.640;13.812;2023-01-19T09:52:32;6.00;99.90
63313;DHT22;49442;45.640;13.812;2023-01-19T09:55:00;6.00;99.90
63313;DHT22;49442;45.640;13.812;2023-01-19T09:57:26;6.00;99.90
63313;DHT22;49442;45.640;13.812;2023-01-19T09:59:52;5.90;99.90
63313;DHT22;49442;45.640;13.812;2023-01-19T10:10:53;5.90;99.90
63313;DHT22;49442;45.640;13.812;2023-01-19T10:18:41;5.90;99.90
63313;DHT22;49442;45.640;13.812;2023-01-19T10:21:19;5.90;99.90
63313;DHT22;49442;45.640;13.812;2023-01-19T10:26:24;6.00;99.90
63313;DHT22;49442;45.640;13.812;2023-01-19T10:28:52;6.00;99.90
63313;DHT22;49442;45.640;13.812;2023-01-19T10:31:19;6.00;99.90
63313;DHT22;49442;45.640;13.812;2023-01-19T10:33:47;6.10;99.90
63313;DHT22;49442;45.640;13.812;2023-01-19T10:36:17;6.00;99.90
63313;DHT22;49442;45.640;13.812;2023-01-19T10:38:43;6.10;99.90
63313;DHT22;49442;45.640;13.812;2023-01-19T10:41:13;6.00;99.90
63313;DHT22;49442;45.640;13.812;2023-01-19T10:43:41;6.00;99.90
63313;DHT22;49442;45.640;13.812;2023-01-19T10:48:52;5.90;99.90
63313;DHT22;49442;45.640;13.812;2023-01-19T10:51:18;5.90;99.90
63313;DHT22;49442;45.640;13.812;2023-01-19T10:56:23;5.90;99.90
63313;DHT22;49442;45.640;13.812;2023-01-19T10:58:49;5.90;99.90
63313;DHT22;49442;45.640;13.812;2023-01-19T11:03:40;5.90;99.90
63313;DHT22;49442;45.640;13.812;2023-01-19T11:08:37;5.90;99.90
63313;DHT22;49442;45.640;13.812;2023-01-19T11:11:03;5.90;99.90
63313;DHT22;49442;45.640;13.812;2023-01-19T11:13:29;5.90;99.90
63313;DHT22;49442;45.640;13.812;2023-01-19T11:18:39;5.90;99.90
63313;DHT22;49442;45.640;13.812;2023-01-19T11:21:06;5.80;99.90
63313;DHT22;49442;45.640;13.812;2023-01-19T11:23:33;5.90;99.90
63313;DHT22;49442;45.640;13.812;2023-01-19T11:26:01;5.90;99.90
63313;DHT22;49442;45.640;13.812;2023-01-19T11:28:29;6.00;99.90
63313;DHT22;49442;45.640;13.812;2023-01-19T11:30:57;6.10;99.90
63313;DHT22;49442;45.640;13.812;2023-01-19T11:33:24;6.10;99.90
63313;DHT22;49442;45.640;13.812;2023-01-19T11:35:49;6.20;99.90
63313;DHT22;49442;45.640;13.812;2023-01-19T11:38:25;6.30;99.90
63313;DHT22;49442;45.640;13.812;2023-01-19T11:40:55;6.30;99.90
63313;DHT22;49442;45.640;13.812;2023-01-19T11:43:22;6.30;99.90
63313;DHT22;49442;45.640;13.812;2023-01-19T11:45:47;6.40;99.90
63313;DHT22;49442;45.640;13.812;2023-01-19T11:48:24;6.30;99.90
63313;DHT22;49442;45.640;13.812;2023-01-19T11:50:51;6.20;99.90
63313;DHT22;49442;45.640;13.812;2023-01-19T11:53:19;6.20;99.90
63313;DHT22;49442;45.640;13.812;2023-01-19T11:55:55;6.10;99.90
63313;DHT22;49442;45.640;13.812;2023-01-19T11:58:21;6.00;99.90
63313;DHT22;49442;45.640;13.812;2023-01-19T12:00:49;6.00;99.90
63313;DHT22;49442;45.640;13.812;2023-01-19T12:05:46;6.00;99.90
63313;DHT22;49442;45.640;13.812;2023-01-19T12:08:14;6.10;99.90
63313;DHT22;49442;45.640;13.812;2023-01-19T12:10:40;6.10;99.90
63313;DHT22;49442;45.640;13.812;2023-01-19T12:13:19;6.10;99.90
63313;DHT22;49442;45.640;13.812;2023-01-19T12:15:45;6.00;99.90
63313;DHT22;49442;45.640;13.812;2023-01-19T12:18:17;6.10;99.90
63313;DHT22;49442;45.640;13.812;2023-01-19T12:20:46;6.00;99.90
63313;DHT22;49442;45.640;13.812;2023-01-19T12:23:57;6.00;99.90
63313;DHT22;49442;45.640;13.812;2023-01-19T12:26:05;6.00;99.90
63313;DHT22;49442;45.640;13.812;2023-01-19T12:28:38;5.90;99.90
63313;DHT22;49442;45.640;13.812;2023-01-19T12:31:05;5.80;99.90
63313;DHT22;49442;45.640;13.812;2023-01-19T12:33:31;5.80;99.90
63313;DHT22;49442;45.640;13.812;2023-01-19T12:36:02;5.60;99.90
63313;DHT22;49442;45.640;13.812;2023-01-19T12:38:47;5.50;99.90
63313;DHT22;49442;45.640;13.812;2023-01-19T12:51:39;5.50;99.90
63313;DHT22;49442;45.640;13.812;2023-01-19T12:54:05;5.50;99.90
63313;DHT22;49442;45.640;13.812;2023-01-19T12:56:33;5.50;99.90
63313;DHT22;49442;45.640;13.812;2023-01-19T12:58:59;5.60;99.90
63313;DHT22;49442;45.640;13.812;2023-01-19T13:01:24;5.60;99.90
63313;DHT22;49442;45.640;13.812;2023-01-19T13:09:26;5.60;99.90
63313;DHT22;49442;45.640;13.812;2023-01-19T13:12:09;5.60;99.90
63313;DHT22;49442;45.640;13.812;2023-01-19T13:14:35;5.60;99.90
63313;DHT22;49442;45.640;13.812;2023-01-19T13:17:01;5.60;99.90
63313;DHT22;49442;45.640;13.812;2023-01-19T13:19:34;5.60;99.90
63313;DHT22;49442;45.640;13.812;2023-01-19T13:25:07;5.60;99.90
63313;DHT22;49442;45.640;13.812;2023-01-19T13:27:34;5.60;99.90
63313;DHT22;49442;45.640;13.812;2023-01-19T13:30:01;5.60;99.90
63313;DHT22;49442;45.640;13.812;2023-01-19T13:32:26;5.60;99.90
63313;DHT22;49442;45.640;13.812;2023-01-19T13:34:55;5.50;99.90
63313;DHT22;49442;45.640;13.812;2023-01-19T13:37:28;5.20;99.90
63313;DHT22;49442;45.640;13.812;2023-01-19T13:39:55;5.00;99.90
63313;DHT22;49442;45.640;13.812;2023-01-19T13:42:39;4.80;99.90
63313;DHT22;49442;45.640;13.812;2023-01-19T13:45:14;4.80;99.90
63313;DHT22;49442;45.640;13.812;2023-01-19T13:47:44;4.70;99.90
63313;DHT22;49442;45.640;13.812;2023-01-19T13:50:20;4.50;99.90
63313;DHT22;49442;45.640;13.812;2023-01-19T13:52:46;4.50;99.90
63313;DHT22;49442;45.640;13.812;2023-01-19T13:55:14;4.40;99.90
63313;DHT22;49442;45.640;13.812;2023-01-19T13:57:43;4.50;99.90
63313;DHT22;49442;45.640;13.812;2023-01-19T14:07:38;4.70;99.90
63313;DHT22;49442;45.640;13.812;2023-01-19T14:10:03;4.80;99.90
63313;DHT22;49442;45.640;13.812;2023-01-19T14:12:29;4.90;99.90
63313;DHT22;49442;45.640;13.812;2023-01-19T14:14:56;5.00;99.90
63313;DHT22;49442;45.640;13.812;2023-01-19T14:19:48;5.10;99.90
63313;DHT22;49442;45.640;13.812;2023-01-19T14:22:14;5.10;99.90
63313;DHT22;49442;45.640;13.812;2023-01-19T14:24:40;5.20;99.90
63313;DHT22;49442;45.640;13.812;2023-01-19T14:27:09;5.20;99.90
63313;DHT22;49442;45.640;13.812;2023-01-19T14:29:42;5.20;99.90
63313;DHT22;49442;45.640;13.812;2023-01-19T14:34:42;5.20;99.90
63313;DHT22;49442;45.640;13.812;2023-01-19T14:37:30;5.30;99.90
63313;DHT22;49442;45.640;13.812;2023-01-19T14:39:58;5.30;99.90
63313;DHT22;49442;45.640;13.812;2023-01-19T14:42:26;5.30;99.90
63313;DHT22;49442;45.640;13.812;2023-01-19T14:44:52;5.30;99.90
63313;DHT22;49442;45.640;13.812;2023-01-19T14:47:32;5.30;99.90
63313;DHT22;49442;45.640;13.812;2023-01-19T14:50:01;5.40;99.90
63313;DHT22;49442;45.640;13.812;2023-01-19T14:54:52;5.40;99.90
63313;DHT22;49442;45.640;13.812;2023-01-19T14:57:18;5.40;99.90
63313;DHT22;49442;45.640;13.812;2023-01-19T14:59:44;5.40;99.90
63313;DHT22;49442;45.640;13.812;2023-01-19T15:02:13;5.40;99.90
63313;DHT22;49442;45.640;13.812;2023-01-19T15:04:39;5.40;99.90
63313;DHT22;49442;45.640;13.812;2023-01-19T15:07:05;5.40;99.90
63313;DHT22;49442;45.640;13.812;2023-01-19T15:09:31;5.30;99.90
63313;DHT22;49442;45.640;13.812;2023-01-19T15:11:56;5.40;99.90
63313;DHT22;49442;45.640;13.812;2023-01-19T15:14:22;5.40;99.90
63313;DHT22;49442;45.640;13.812;2023-01-19T15:16:48;5.40;99.90
63313;DHT22;49442;45.640;13.812;2023-01-19T15:19:14;5.40;99.90
63313;DHT22;49442;45.640;13.812;2023-01-19T15:21:41;5.40;99.90
63313;DHT22;49442;45.640;13.812;2023-01-19T15:24:10;5.40;99.90
63313;DHT22;49442;45.640;13.812;2023-01-19T15:26:36;5.40;99.90
63313;DHT22;49442;45.640;13.812;2023-01-19T15:29:08;5.40;99.90
63313;DHT22;49442;45.640;13.812;2023-01-19T15:31:35;5.40;99.90
63313;DHT22;49442;45.640;13.812;2023-01-19T15:34:00;5.40;99.90
63313;DHT22;49442;45.640;13.812;2023-01-19T15:36:26;5.30;99.90
63313;DHT22;49442;45.640;13.812;2023-01-19T15:38:51;5.40;99.90
63313;DHT22;49442;45.640;13.812;2023-01-19T15:41:24;5.30;99.90
63313;DHT22;49442;45.640;13.812;2023-01-19T15:43:50;5.30;99.90
63313;DHT22;49442;45.640;13.812;2023-01-19T15:46:19;5.20;99.90
63313;DHT22;49442;45.640;13.812;2023-01-19T15:48:45;5.20;99.90
63313;DHT22;49442;45.640;13.812;2023-01-19T15:51:11;5.20;99.90
63313;DHT22;49442;45.640;13.812;2023-01-19T15:53:38;5.20;99.90
63313;DHT22;49442;45.640;13.812;2023-01-19T15:56:03;5.10;99.90
63313;DHT22;49442;45.640;13.812;2023-01-19T15:58:29;5.10;99.90
63313;DHT22;49442;45.640;13.812;2023-01-19T16:00:55;5.10;99.90
63313;DHT22;49442;45.640;13.812;2023-01-19T16:03:21;5.00;99.90
63313;DHT22;49442;45.640;13.812;2023-01-19T16:05:47;5.00;99.90
63313;DHT22;49442;45.640;13.812;2023-01-19T16:08:13;5.00;99.90
63313;DHT22;49442;45.640;13.812;2023-01-19T16:10:39;5.00;99.90
63313;DHT22;49442;45.640;13.812;2023-01-19T16:13:04;5.00;99.90
63313;DHT22;49442;45.640;13.812;2023-01-19T16:15:30;5.00;99.90
63313;DHT22;49442;45.640;13.812;2023-01-19T16:17:58;5.00;99.90
63313;DHT22;49442;45.640;13.812;2023-01-19T16:20:23;5.00;99.90
63313;DHT22;49442;45.640;13.812;2023-01-19T16:22:49;5.00;99.90
63313;DHT22;49442;45.640;13.812;2023-01-19T16:25:14;5.00;99.90
63313;DHT22;49442;45.640;13.812;2023-01-19T16:27:40;5.10;99.90
63313;DHT22;49442;45.640;13.812;2023-01-19T16:30:06;5.00;99.90
63313;DHT22;49442;45.640;13.812;2023-01-19T16:32:32;5.00;99.90
63313;DHT22;49442;45.640;13.812;2023-01-19T16:34:58;5.00;99.90
63313;DHT22;49442;45.640;13.812;2023-01-19T16:37:23;5.00;99.90
63313;DHT22;49442;45.640;13.812;2023-01-19T16:39:49;5.00;99.90
63313;DHT22;49442;45.640;13.812;2023-01-19T16:42:15;5.00;99.90
63313;DHT22;49442;45.640;13.812;2023-01-19T16:44:41;4.90;99.90
63313;DHT22;49442;45.640;13.812;2023-01-19T16:47:06;4.90;99.90
63313;DHT22;49442;45.640;13.812;2023-01-19T16:49:32;4.90;99.90
63313;DHT22;49442;45.640;13.812;2023-01-19T16:51:57;4.90;99.90
63313;DHT22;49442;45.640;13.812;2023-01-19T16:54:24;4.90;99.90
63313;DHT22;49442;45.640;13.812;2023-01-19T16:56:50;4.90;99.90
63313;DHT22;49442;45.640;13.812;2023-01-19T16:59:16;4.90;99.90
63313;DHT22;49442;45.640;13.812;2023-01-19T17:01:42;4.90;99.90